sensor_id;sensor_type;location;lat;lon;timestamp;P1;durP1;ratioP1;P2;durP2;ratioP2
8952;SDS011;4511;50.890;8.054;2022-11-18T00:01:36;6.83;;;5.43;;
8952;SDS011;4511;50.890;8.054;2022-11-18T00:04:02;8.50;;;6.17;;
8952;SDS011;4511;50.890;8.054;2022-11-18T00:06:29;10.83;;;6.40;;
8952;SDS011;4511;50.890;8.054;2022-11-18T00:08:56;9.73;;;6.23;;
8952;SDS011;4511;50.890;8.054;2022-11-18T00:11:24;10.23;;;5.30;;
8952;SDS011;4511;50.890;8.054;2022-11-18T00:14:12;10.93;;;6.20;;
8952;SDS011;4511;50.890;8.054;2022-11-18T00:16:48;8.63;;;5.07;;
8952;SDS011;4511;50.890;8.054;2022-11-18T00:19:16;6.67;;;4.60;;
8952;SDS011;4511;50.890;8.054;2022-11-18T00:21:43;7.27;;;5.47;;
8952;SDS011;4511;50.890;8.054;2022-11-18T00:24:10;9.70;;;5.67;;
8952;SDS011;4511;50.890;8.054;2022-11-18T00:26:37;5.70;;;4.80;;
8952;SDS011;4511;50.890;8.054;2022-11-18T00:29:04;6.87;;;3.93;;
8952;SDS011;4511;50.890;8.054;2022-11-18T00:31:32;4.93;;;4.00;;
8952;SDS011;4511;50.890;8.054;2022-11-18T00:34:01;5.03;;;3.23;;
8952;SDS011;4511;50.890;8.054;2022-11-18T00:36:27;5.80;;;3.57;;
8952;SDS011;4511;50.890;8.054;2022-11-18T00:38:55;7.17;;;4.77;;
8952;SDS011;4511;50.890;8.054;2022-11-18T00:41:22;4.07;;;3.50;;
8952;SDS011;4511;50.890;8.054;2022-11-18T00:43:48;4.73;;;3.40;;
8952;SDS011;4511;50.890;8.054;2022-11-18T00:46:14;3.77;;;3.13;;
8952;SDS011;4511;50.890;8.054;2022-11-18T00:48:42;3.77;;;3.33;;
8952;SDS011;4511;50.890;8.054;2022-11-18T00:51:10;5.73;;;4.33;;
8952;SDS011;4511;50.890;8.054;2022-11-18T00:53:43;9.17;;;5.10;;
8952;SDS011;4511;50.890;8.054;2022-11-18T00:56:10;7.10;;;5.07;;
8952;SDS011;4511;50.890;8.054;2022-11-18T00:58:37;6.90;;;4.83;;
8952;SDS011;4511;50.890;8.054;2022-11-18T01:01:04;4.97;;;4.13;;
8952;SDS011;4511;50.890;8.054;2022-11-18T01:03:31;6.03;;;3.87;;
8952;SDS011;4511;50.890;8.054;2022-11-18T01:05:59;3.43;;;3.13;;
8952;SDS011;4511;50.890;8.054;2022-11-18T01:08:26;4.00;;;3.10;;
8952;SDS011;4511;50.890;8.054;2022-11-18T01:10:53;4.37;;;3.03;;
8952;SDS011;4511;50.890;8.054;2022-11-18T01:13:40;3.70;;;3.07;;
8952;SDS011;4511;50.890;8.054;2022-11-18T01:16:05;3.73;;;3.10;;
8952;SDS011;4511;50.890;8.054;2022-11-18T01:18:32;5.90;;;2.93;;
8952;SDS011;4511;50.890;8.054;2022-11-18T01:21:01;6.23;;;2.93;;
8952;SDS011;4511;50.890;8.054;2022-11-18T01:23:30;4.17;;;2.83;;
8952;SDS011;4511;50.890;8.054;2022-11-18T01:26:02;4.03;;;3.10;;
8952;SDS011;4511;50.890;8.054;2022-11-18T01:28:29;3.80;;;2.67;;
8952;SDS011;4511;50.890;8.054;2022-11-18T01:31:01;2.90;;;2.70;;
8952;SDS011;4511;50.890;8.054;2022-11-18T01:33:29;3.47;;;2.80;;
8952;SDS011;4511;50.890;8.054;2022-11-18T01:35:55;3.83;;;2.90;;
8952;SDS011;4511;50.890;8.054;2022-11-18T01:38:24;3.47;;;2.93;;
8952;SDS011;4511;50.890;8.054;2022-11-18T01:40:51;3.27;;;2.77;;
8952;SDS011;4511;50.890;8.054;2022-11-18T01:43:18;3.33;;;2.60;;
8952;SDS011;4511;50.890;8.054;2022-11-18T01:45:47;3.00;;;2.70;;
8952;SDS011;4511;50.890;8.054;2022-11-18T01:48:16;3.20;;;2.90;;
8952;SDS011;4511;50.890;8.054;2022-11-18T01:50:46;3.20;;;2.63;;
8952;SDS011;4511;50.890;8.054;2022-11-18T01:53:18;9.63;;;3.30;;
8952;SDS011;4511;50.890;8.054;2022-11-18T01:55:49;3.70;;;3.30;;
8952;SDS011;4511;50.890;8.054;2022-11-18T01:58:21;4.50;;;3.27;;
8952;SDS011;4511;50.890;8.054;2022-11-18T02:00:52;4.60;;;3.10;;
8952;SDS011;4511;50.890;8.054;2022-11-18T02:03:20;6.90;;;3.97;;
8952;SDS011;4511;50.890;8.054;2022-11-18T02:05:48;4.83;;;3.00;;
8952;SDS011;4511;50.890;8.054;2022-11-18T02:08:18;3.20;;;2.90;;
8952;SDS011;4511;50.890;8.054;2022-11-18T02:10:46;4.30;;;3.37;;
8952;SDS011;4511;50.890;8.054;2022-11-18T02:13:14;3.63;;;3.30;;
8952;SDS011;4511;50.890;8.054;2022-11-18T02:15:45;7.53;;;3.73;;
8952;SDS011;4511;50.890;8.054;2022-11-18T02:18:21;4.50;;;4.03;;
8952;SDS011;4511;50.890;8.054;2022-11-18T02:20:54;6.47;;;4.20;;
8952;SDS011;4511;50.890;8.054;2022-11-18T02:26:54;9.43;;;4.73;;
8952;SDS011;4511;50.890;8.054;2022-11-18T02:29:46;9.07;;;4.27;;
8952;SDS011;4511;50.890;8.054;2022-11-18T02:32:21;4.03;;;3.57;;
8952;SDS011;4511;50.890;8.054;2022-11-18T02:34:52;29.23;;;4.70;;
8952;SDS011;4511;50.890;8.054;2022-11-18T02:37:26;44.60;;;5.70;;
8952;SDS011;4511;50.890;8.054;2022-11-18T02:40:01;44.40;;;5.50;;
8952;SDS011;4511;50.890;8.054;2022-11-18T02:42:32;7.07;;;3.90;;
8952;SDS011;4511;50.890;8.054;2022-11-18T02:45:04;4.90;;;3.80;;
8952;SDS011;4511;50.890;8.054;2022-11-18T02:47:33;12.03;;;8.37;;
8952;SDS011;4511;50.890;8.054;2022-11-18T02:50:02;48.57;;;8.40;;
8952;SDS011;4511;50.890;8.054;2022-11-18T02:52:32;6.53;;;5.87;;
8952;SDS011;4511;50.890;8.054;2022-11-18T02:55:01;6.87;;;6.20;;
8952;SDS011;4511;50.890;8.054;2022-11-18T02:57:31;9.20;;;5.70;;
8952;SDS011;4511;50.890;8.054;2022-11-18T03:00:00;7.00;;;6.17;;
8952;SDS011;4511;50.890;8.054;2022-11-18T03:02:38;6.87;;;5.70;;
8952;SDS011;4511;50.890;8.054;2022-11-18T03:05:05;7.43;;;5.53;;
8952;SDS011;4511;50.890;8.054;2022-11-18T03:07:38;11.63;;;7.47;;
8952;SDS011;4511;50.890;8.054;2022-11-18T03:10:09;10.30;;;7.20;;
8952;SDS011;4511;50.890;8.054;2022-11-18T03:12:38;9.23;;;7.70;;
8952;SDS011;4511;50.890;8.054;2022-11-18T03:15:11;10.53;;;7.83;;
8952;SDS011;4511;50.890;8.054;2022-11-18T03:17:52;18.73;;;9.93;;
8952;SDS011;4511;50.890;8.054;2022-11-18T03:20:26;14.47;;;9.40;;
8952;SDS011;4511;50.890;8.054;2022-11-18T03:22:56;8.63;;;7.40;;
8952;SDS011;4511;50.890;8.054;2022-11-18T03:25:30;10.40;;;8.13;;
8952;SDS011;4511;50.890;8.054;2022-11-18T03:28:05;13.10;;;9.63;;
8952;SDS011;4511;50.890;8.054;2022-11-18T03:30:38;12.00;;;10.13;;
8952;SDS011;4511;50.890;8.054;2022-11-18T03:33:13;14.03;;;10.47;;
8952;SDS011;4511;50.890;8.054;2022-11-18T03:35:45;12.67;;;8.13;;
8952;SDS011;4511;50.890;8.054;2022-11-18T03:38:15;10.50;;;7.20;;
8952;SDS011;4511;50.890;8.054;2022-11-18T03:40:45;9.97;;;7.10;;
8952;SDS011;4511;50.890;8.054;2022-11-18T03:43:15;7.43;;;6.17;;
8952;SDS011;4511;50.890;8.054;2022-11-18T03:45:45;6.00;;;5.40;;
8952;SDS011;4511;50.890;8.054;2022-11-18T03:48:16;6.63;;;4.93;;
8952;SDS011;4511;50.890;8.054;2022-11-18T03:50:45;5.23;;;4.70;;
8952;SDS011;4511;50.890;8.054;2022-11-18T03:53:15;6.20;;;4.37;;
8952;SDS011;4511;50.890;8.054;2022-11-18T03:55:44;6.13;;;4.80;;
8952;SDS011;4511;50.890;8.054;2022-11-18T03:58:17;8.13;;;5.70;;
8952;SDS011;4511;50.890;8.054;2022-11-18T04:00:47;7.70;;;5.77;;
8952;SDS011;4511;50.890;8.054;2022-11-18T04:03:19;7.07;;;5.47;;
8952;SDS011;4511;50.890;8.054;2022-11-18T04:05:45;6.10;;;5.50;;
8952;SDS011;4511;50.890;8.054;2022-11-18T04:08:20;6.37;;;5.30;;
8952;SDS011;4511;50.890;8.054;2022-11-18T04:10:50;7.63;;;5.20;;
8952;SDS011;4511;50.890;8.054;2022-11-18T04:13:23;7.00;;;5.50;;
8952;SDS011;4511;50.890;8.054;2022-11-18T04:15:53;13.17;;;6.27;;
8952;SDS011;4511;50.890;8.054;2022-11-18T04:18:23;9.67;;;6.67;;
8952;SDS011;4511;50.890;8.054;2022-11-18T04:20:50;11.93;;;6.67;;
8952;SDS011;4511;50.890;8.054;2022-11-18T04:23:17;20.60;;;7.13;;
8952;SDS011;4511;50.890;8.054;2022-11-18T04:25:43;7.20;;;6.00;;
8952;SDS011;4511;50.890;8.054;2022-11-18T04:28:10;6.17;;;5.57;;
8952;SDS011;4511;50.890;8.054;2022-11-18T04:30:37;7.37;;;5.70;;
8952;SDS011;4511;50.890;8.054;2022-11-18T04:33:04;6.53;;;5.93;;
8952;SDS011;4511;50.890;8.054;2022-11-18T04:35:32;10.23;;;6.20;;
8952;SDS011;4511;50.890;8.054;2022-11-18T04:37:58;11.43;;;6.00;;
8952;SDS011;4511;50.890;8.054;2022-11-18T04:40:25;8.23;;;5.57;;
8952;SDS011;4511;50.890;8.054;2022-11-18T04:42:52;6.80;;;5.90;;
8952;SDS011;4511;50.890;8.054;2022-11-18T04:45:19;6.13;;;5.53;;
8952;SDS011;4511;50.890;8.054;2022-11-18T04:47:46;8.47;;;5.97;;
8952;SDS011;4511;50.890;8.054;2022-11-18T04:50:12;9.10;;;5.80;;
8952;SDS011;4511;50.890;8.054;2022-11-18T04:52:40;7.00;;;5.90;;
8952;SDS011;4511;50.890;8.054;2022-11-18T04:55:07;8.77;;;5.40;;
8952;SDS011;4511;50.890;8.054;2022-11-18T04:57:35;8.67;;;5.53;;
8952;SDS011;4511;50.890;8.054;2022-11-18T05:00:02;12.23;;;6.27;;
8952;SDS011;4511;50.890;8.054;2022-11-18T05:02:30;11.13;;;6.83;;
8952;SDS011;4511;50.890;8.054;2022-11-18T05:04:57;6.67;;;5.67;;
8952;SDS011;4511;50.890;8.054;2022-11-18T05:07:23;7.70;;;6.43;;
8952;SDS011;4511;50.890;8.054;2022-11-18T05:09:51;9.60;;;6.70;;
8952;SDS011;4511;50.890;8.054;2022-11-18T05:12:18;8.73;;;6.50;;
8952;SDS011;4511;50.890;8.054;2022-11-18T05:15:02;9.80;;;6.63;;
8952;SDS011;4511;50.890;8.054;2022-11-18T05:17:29;8.03;;;6.10;;
8952;SDS011;4511;50.890;8.054;2022-11-18T05:19:56;120.87;;;10.30;;
8952;SDS011;4511;50.890;8.054;2022-11-18T05:22:23;8.60;;;5.83;;
8952;SDS011;4511;50.890;8.054;2022-11-18T05:24:49;196.17;;;11.00;;
8952;SDS011;4511;50.890;8.054;2022-11-18T05:27:18;44.97;;;8.13;;
8952;SDS011;4511;50.890;8.054;2022-11-18T05:29:44;7.00;;;6.30;;
8952;SDS011;4511;50.890;8.054;2022-11-18T05:32:11;10.03;;;6.23;;
8952;SDS011;4511;50.890;8.054;2022-11-18T05:34:38;12.87;;;7.30;;
8952;SDS011;4511;50.890;8.054;2022-11-18T05:37:05;12.33;;;8.03;;
8952;SDS011;4511;50.890;8.054;2022-11-18T05:39:31;12.80;;;7.57;;
8952;SDS011;4511;50.890;8.054;2022-11-18T05:41:59;11.00;;;7.77;;
8952;SDS011;4511;50.890;8.054;2022-11-18T05:44:44;9.97;;;6.83;;
8952;SDS011;4511;50.890;8.054;2022-11-18T05:47:10;10.00;;;6.80;;
8952;SDS011;4511;50.890;8.054;2022-11-18T05:49:37;11.37;;;7.20;;
8952;SDS011;4511;50.890;8.054;2022-11-18T05:52:04;7.77;;;5.90;;
8952;SDS011;4511;50.890;8.054;2022-11-18T05:54:31;9.27;;;5.70;;
8952;SDS011;4511;50.890;8.054;2022-11-18T05:57:00;10.17;;;6.97;;
8952;SDS011;4511;50.890;8.054;2022-11-18T05:59:26;4.93;;;4.30;;
8952;SDS011;4511;50.890;8.054;2022-11-18T06:01:54;8.27;;;5.87;;
8952;SDS011;4511;50.890;8.054;2022-11-18T06:04:24;6.70;;;6.00;;
8952;SDS011;4511;50.890;8.054;2022-11-18T06:06:56;8.67;;;7.00;;
8952;SDS011;4511;50.890;8.054;2022-11-18T06:09:28;9.27;;;6.40;;
8952;SDS011;4511;50.890;8.054;2022-11-18T06:12:01;8.60;;;6.73;;
8952;SDS011;4511;50.890;8.054;2022-11-18T06:14:31;6.07;;;5.47;;
8952;SDS011;4511;50.890;8.054;2022-11-18T06:17:05;7.00;;;5.90;;
8952;SDS011;4511;50.890;8.054;2022-11-18T06:19:36;7.57;;;5.90;;
8952;SDS011;4511;50.890;8.054;2022-11-18T06:22:03;6.47;;;5.87;;
8952;SDS011;4511;50.890;8.054;2022-11-18T06:24:31;7.27;;;5.80;;
8952;SDS011;4511;50.890;8.054;2022-11-18T06:26:58;7.13;;;5.53;;
8952;SDS011;4511;50.890;8.054;2022-11-18T06:29:26;6.63;;;5.90;;
8952;SDS011;4511;50.890;8.054;2022-11-18T06:31:53;7.77;;;6.40;;
8952;SDS011;4511;50.890;8.054;2022-11-18T06:34:20;7.53;;;6.63;;
8952;SDS011;4511;50.890;8.054;2022-11-18T06:36:47;7.77;;;6.10;;
8952;SDS011;4511;50.890;8.054;2022-11-18T06:39:13;8.20;;;5.80;;
8952;SDS011;4511;50.890;8.054;2022-11-18T06:41:40;7.60;;;6.30;;
8952;SDS011;4511;50.890;8.054;2022-11-18T06:44:07;7.47;;;6.07;;
8952;SDS011;4511;50.890;8.054;2022-11-18T06:46:36;6.67;;;5.60;;
8952;SDS011;4511;50.890;8.054;2022-11-18T06:49:22;5.87;;;5.33;;
8952;SDS011;4511;50.890;8.054;2022-11-18T06:51:49;10.33;;;5.53;;
8952;SDS011;4511;50.890;8.054;2022-11-18T06:54:16;5.23;;;4.73;;
8952;SDS011;4511;50.890;8.054;2022-11-18T06:56:44;5.23;;;4.73;;
8952;SDS011;4511;50.890;8.054;2022-11-18T06:59:10;6.03;;;5.40;;
8952;SDS011;4511;50.890;8.054;2022-11-18T07:01:39;6.83;;;5.50;;
8952;SDS011;4511;50.890;8.054;2022-11-18T07:04:06;7.07;;;5.60;;
8952;SDS011;4511;50.890;8.054;2022-11-18T07:06:33;8.87;;;7.00;;
8952;SDS011;4511;50.890;8.054;2022-11-18T07:09:02;9.13;;;6.73;;
8952;SDS011;4511;50.890;8.054;2022-11-18T07:11:30;12.83;;;9.97;;
8952;SDS011;4511;50.890;8.054;2022-11-18T07:13:56;12.13;;;9.07;;
8952;SDS011;4511;50.890;8.054;2022-11-18T07:16:24;14.13;;;9.83;;
8952;SDS011;4511;50.890;8.054;2022-11-18T07:18:54;11.43;;;8.83;;
8952;SDS011;4511;50.890;8.054;2022-11-18T07:21:21;8.90;;;7.20;;
8952;SDS011;4511;50.890;8.054;2022-11-18T07:23:49;9.20;;;6.70;;
8952;SDS011;4511;50.890;8.054;2022-11-18T07:26:16;9.73;;;6.93;;
8952;SDS011;4511;50.890;8.054;2022-11-18T07:28:43;7.30;;;6.37;;
8952;SDS011;4511;50.890;8.054;2022-11-18T07:31:11;8.77;;;7.20;;
8952;SDS011;4511;50.890;8.054;2022-11-18T07:33:41;9.57;;;7.80;;
8952;SDS011;4511;50.890;8.054;2022-11-18T07:36:10;9.13;;;7.20;;
8952;SDS011;4511;50.890;8.054;2022-11-18T07:38:40;7.20;;;6.50;;
8952;SDS011;4511;50.890;8.054;2022-11-18T07:41:09;9.07;;;6.10;;
8952;SDS011;4511;50.890;8.054;2022-11-18T07:43:37;7.47;;;6.40;;
8952;SDS011;4511;50.890;8.054;2022-11-18T07:46:09;7.27;;;6.53;;
8952;SDS011;4511;50.890;8.054;2022-11-18T07:48:37;7.70;;;6.43;;
8952;SDS011;4511;50.890;8.054;2022-11-18T07:51:03;7.00;;;6.30;;
8952;SDS011;4511;50.890;8.054;2022-11-18T07:53:33;7.97;;;5.90;;
8952;SDS011;4511;50.890;8.054;2022-11-18T07:56:01;6.67;;;6.07;;
8952;SDS011;4511;50.890;8.054;2022-11-18T07:58:28;7.73;;;6.27;;
8952;SDS011;4511;50.890;8.054;2022-11-18T08:00:55;7.50;;;6.30;;
8952;SDS011;4511;50.890;8.054;2022-11-18T08:03:24;6.67;;;6.07;;
8952;SDS011;4511;50.890;8.054;2022-11-18T08:05:51;6.70;;;5.60;;
8952;SDS011;4511;50.890;8.054;2022-11-18T08:08:19;6.60;;;6.00;;
8952;SDS011;4511;50.890;8.054;2022-11-18T08:10:47;8.27;;;6.40;;
8952;SDS011;4511;50.890;8.054;2022-11-18T08:13:14;7.13;;;6.43;;
8952;SDS011;4511;50.890;8.054;2022-11-18T08:15:42;8.50;;;7.33;;
8952;SDS011;4511;50.890;8.054;2022-11-18T08:18:10;9.10;;;6.73;;
8952;SDS011;4511;50.890;8.054;2022-11-18T08:20:37;7.73;;;6.13;;
8952;SDS011;4511;50.890;8.054;2022-11-18T08:23:04;8.00;;;6.73;;
8952;SDS011;4511;50.890;8.054;2022-11-18T08:25:30;7.13;;;6.40;;
8952;SDS011;4511;50.890;8.054;2022-11-18T08:27:58;8.87;;;7.00;;
8952;SDS011;4511;50.890;8.054;2022-11-18T08:30:25;7.90;;;6.67;;
8952;SDS011;4511;50.890;8.054;2022-11-18T08:32:52;8.10;;;6.50;;
8952;SDS011;4511;50.890;8.054;2022-11-18T08:35:20;10.37;;;7.40;;
8952;SDS011;4511;50.890;8.054;2022-11-18T08:37:47;11.07;;;7.23;;
8952;SDS011;4511;50.890;8.054;2022-11-18T08:40:14;7.90;;;6.90;;
8952;SDS011;4511;50.890;8.054;2022-11-18T08:42:41;9.77;;;7.03;;
8952;SDS011;4511;50.890;8.054;2022-11-18T08:45:09;7.47;;;6.73;;
8952;SDS011;4511;50.890;8.054;2022-11-18T08:47:36;8.30;;;7.00;;
8952;SDS011;4511;50.890;8.054;2022-11-18T08:50:04;9.60;;;7.77;;
8952;SDS011;4511;50.890;8.054;2022-11-18T08:52:33;10.63;;;7.10;;
8952;SDS011;4511;50.890;8.054;2022-11-18T08:55:00;7.13;;;6.07;;
8952;SDS011;4511;50.890;8.054;2022-11-18T08:57:28;7.73;;;6.13;;
8952;SDS011;4511;50.890;8.054;2022-11-18T08:59:55;6.90;;;6.20;;
8952;SDS011;4511;50.890;8.054;2022-11-18T09:02:23;8.80;;;6.63;;
8952;SDS011;4511;50.890;8.054;2022-11-18T09:04:51;6.93;;;5.83;;
8952;SDS011;4511;50.890;8.054;2022-11-18T09:07:18;6.73;;;5.70;;
8952;SDS011;4511;50.890;8.054;2022-11-18T09:09:46;9.67;;;6.30;;
8952;SDS011;4511;50.890;8.054;2022-11-18T09:12:14;8.10;;;5.63;;
8952;SDS011;4511;50.890;8.054;2022-11-18T09:14:41;12.97;;;5.90;;
8952;SDS011;4511;50.890;8.054;2022-11-18T09:17:08;11.20;;;6.30;;
8952;SDS011;4511;50.890;8.054;2022-11-18T09:19:36;10.37;;;6.40;;
8952;SDS011;4511;50.890;8.054;2022-11-18T09:22:04;10.67;;;6.47;;
8952;SDS011;4511;50.890;8.054;2022-11-18T09:24:31;10.53;;;6.47;;
8952;SDS011;4511;50.890;8.054;2022-11-18T09:27:01;10.17;;;6.77;;
8952;SDS011;4511;50.890;8.054;2022-11-18T09:29:28;10.00;;;6.73;;
8952;SDS011;4511;50.890;8.054;2022-11-18T09:31:56;10.30;;;6.70;;
8952;SDS011;4511;50.890;8.054;2022-11-18T09:34:26;9.70;;;6.53;;
8952;SDS011;4511;50.890;8.054;2022-11-18T09:36:54;10.60;;;5.90;;
8952;SDS011;4511;50.890;8.054;2022-11-18T09:39:21;9.03;;;6.40;;
8952;SDS011;4511;50.890;8.054;2022-11-18T09:41:49;10.47;;;7.00;;
8952;SDS011;4511;50.890;8.054;2022-11-18T09:44:28;10.03;;;6.57;;
8952;SDS011;4511;50.890;8.054;2022-11-18T09:47:12;9.93;;;7.33;;
8952;SDS011;4511;50.890;8.054;2022-11-18T09:49:47;10.53;;;6.83;;
8952;SDS011;4511;50.890;8.054;2022-11-18T09:52:17;8.03;;;6.60;;
8952;SDS011;4511;50.890;8.054;2022-11-18T09:54:47;8.50;;;6.90;;
8952;SDS011;4511;50.890;8.054;2022-11-18T09:57:14;11.37;;;8.73;;
8952;SDS011;4511;50.890;8.054;2022-11-18T09:59:43;10.67;;;8.70;;
8952;SDS011;4511;50.890;8.054;2022-11-18T10:02:18;11.23;;;8.50;;
8952;SDS011;4511;50.890;8.054;2022-11-18T10:05:07;9.80;;;7.97;;
8952;SDS011;4511;50.890;8.054;2022-11-18T10:07:45;8.93;;;8.03;;
8952;SDS011;4511;50.890;8.054;2022-11-18T10:10:20;12.83;;;7.83;;
8952;SDS011;4511;50.890;8.054;2022-11-18T10:12:53;9.77;;;7.00;;
8952;SDS011;4511;50.890;8.054;2022-11-18T10:15:23;9.40;;;7.70;;
8952;SDS011;4511;50.890;8.054;2022-11-18T10:17:57;10.40;;;7.30;;
8952;SDS011;4511;50.890;8.054;2022-11-18T10:20:36;11.37;;;7.63;;
8952;SDS011;4511;50.890;8.054;2022-11-18T10:23:16;12.23;;;7.27;;
8952;SDS011;4511;50.890;8.054;2022-11-18T10:25:47;11.90;;;7.67;;
8952;SDS011;4511;50.890;8.054;2022-11-18T10:28:16;12.00;;;7.20;;
8952;SDS011;4511;50.890;8.054;2022-11-18T10:30:45;13.43;;;8.13;;
8952;SDS011;4511;50.890;8.054;2022-11-18T10:33:25;14.80;;;9.70;;
8952;SDS011;4511;50.890;8.054;2022-11-18T10:36:09;6.97;;;6.27;;
8952;SDS011;4511;50.890;8.054;2022-11-18T10:38:45;9.93;;;7.40;;
8952;SDS011;4511;50.890;8.054;2022-11-18T10:41:12;8.07;;;6.20;;
8952;SDS011;4511;50.890;8.054;2022-11-18T10:43:43;6.83;;;4.60;;
8952;SDS011;4511;50.890;8.054;2022-11-18T10:46:16;4.60;;;4.13;;
8952;SDS011;4511;50.890;8.054;2022-11-18T10:49:04;5.07;;;4.57;;
8952;SDS011;4511;50.890;8.054;2022-11-18T10:51:41;7.40;;;5.03;;
8952;SDS011;4511;50.890;8.054;2022-11-18T10:54:13;6.87;;;4.83;;
8952;SDS011;4511;50.890;8.054;2022-11-18T10:56:43;6.70;;;4.67;;
8952;SDS011;4511;50.890;8.054;2022-11-18T10:59:17;6.83;;;5.37;;
8952;SDS011;4511;50.890;8.054;2022-11-18T11:01:56;7.23;;;5.80;;
8952;SDS011;4511;50.890;8.054;2022-11-18T11:04:25;5.97;;;4.80;;
8952;SDS011;4511;50.890;8.054;2022-11-18T11:06:55;9.33;;;5.30;;
8952;SDS011;4511;50.890;8.054;2022-11-18T11:09:25;8.93;;;5.67;;
8952;SDS011;4511;50.890;8.054;2022-11-18T11:11:54;6.07;;;4.93;;
8952;SDS011;4511;50.890;8.054;2022-11-18T11:14:25;6.00;;;4.20;;
8952;SDS011;4511;50.890;8.054;2022-11-18T11:16:58;8.10;;;4.80;;
8952;SDS011;4511;50.890;8.054;2022-11-18T11:19:32;5.20;;;4.60;;
8952;SDS011;4511;50.890;8.054;2022-11-18T11:22:07;5.03;;;4.23;;
8952;SDS011;4511;50.890;8.054;2022-11-18T11:24:38;4.77;;;4.00;;
8952;SDS011;4511;50.890;8.054;2022-11-18T11:27:07;5.90;;;4.53;;
8952;SDS011;4511;50.890;8.054;2022-11-18T11:29:52;6.70;;;4.60;;
8952;SDS011;4511;50.890;8.054;2022-11-18T11:32:29;6.17;;;4.47;;
8952;SDS011;4511;50.890;8.054;2022-11-18T11:35:05;4.50;;;4.10;;
8952;SDS011;4511;50.890;8.054;2022-11-18T11:37:45;5.57;;;4.27;;
8952;SDS011;4511;50.890;8.054;2022-11-18T11:40:24;5.53;;;4.73;;
8952;SDS011;4511;50.890;8.054;2022-11-18T11:43:02;5.30;;;4.37;;
8952;SDS011;4511;50.890;8.054;2022-11-18T11:45:55;5.07;;;4.57;;
8952;SDS011;4511;50.890;8.054;2022-11-18T11:48:34;5.53;;;4.87;;
8952;SDS011;4511;50.890;8.054;2022-11-18T11:51:12;4.90;;;4.50;;
8952;SDS011;4511;50.890;8.054;2022-11-18T11:53:50;5.60;;;5.13;;
8952;SDS011;4511;50.890;8.054;2022-11-18T11:56:40;6.83;;;6.13;;
8952;SDS011;4511;50.890;8.054;2022-11-18T11:59:15;6.50;;;5.87;;
8952;SDS011;4511;50.890;8.054;2022-11-18T12:02:10;6.30;;;5.70;;
8952;SDS011;4511;50.890;8.054;2022-11-18T12:04:54;6.40;;;5.63;;
8952;SDS011;4511;50.890;8.054;2022-11-18T12:07:24;9.33;;;5.60;;
8952;SDS011;4511;50.890;8.054;2022-11-18T12:09:57;7.53;;;6.00;;
8952;SDS011;4511;50.890;8.054;2022-11-18T12:12:36;4.83;;;4.30;;
8952;SDS011;4511;50.890;8.054;2022-11-18T12:15:10;4.97;;;4.47;;
8952;SDS011;4511;50.890;8.054;2022-11-18T12:17:52;5.80;;;4.73;;
8952;SDS011;4511;50.890;8.054;2022-11-18T12:20:35;5.83;;;5.33;;
8952;SDS011;4511;50.890;8.054;2022-11-18T12:23:12;5.47;;;4.70;;
8952;SDS011;4511;50.890;8.054;2022-11-18T12:25:42;6.03;;;5.43;;
8952;SDS011;4511;50.890;8.054;2022-11-18T12:28:22;6.27;;;5.20;;
8952;SDS011;4511;50.890;8.054;2022-11-18T12:33:53;6.53;;;4.87;;
8952;SDS011;4511;50.890;8.054;2022-11-18T12:36:24;6.00;;;5.30;;
8952;SDS011;4511;50.890;8.054;2022-11-18T12:38:52;11.63;;;5.63;;
8952;SDS011;4511;50.890;8.054;2022-11-18T12:44:36;5.10;;;4.70;;
8952;SDS011;4511;50.890;8.054;2022-11-18T12:47:03;8.90;;;5.50;;
8952;SDS011;4511;50.890;8.054;2022-11-18T12:52:47;12.17;;;6.10;;
8952;SDS011;4511;50.890;8.054;2022-11-18T12:55:17;9.40;;;5.93;;
8952;SDS011;4511;50.890;8.054;2022-11-18T12:57:47;8.00;;;6.10;;
8952;SDS011;4511;50.890;8.054;2022-11-18T13:00:16;7.27;;;6.00;;
8952;SDS011;4511;50.890;8.054;2022-11-18T13:02:52;6.70;;;5.60;;
8952;SDS011;4511;50.890;8.054;2022-11-18T13:05:20;7.13;;;5.93;;
8952;SDS011;4511;50.890;8.054;2022-11-18T13:07:50;8.60;;;6.27;;
8952;SDS011;4511;50.890;8.054;2022-11-18T13:10:38;8.83;;;6.57;;
8952;SDS011;4511;50.890;8.054;2022-11-18T13:15:50;9.67;;;6.57;;
8952;SDS011;4511;50.890;8.054;2022-11-18T13:18:45;8.57;;;5.80;;
8952;SDS011;4511;50.890;8.054;2022-11-18T13:21:18;9.17;;;5.53;;
8952;SDS011;4511;50.890;8.054;2022-11-18T13:24:04;8.07;;;5.63;;
8952;SDS011;4511;50.890;8.054;2022-11-18T13:26:31;9.07;;;5.50;;
8952;SDS011;4511;50.890;8.054;2022-11-18T13:29:18;7.07;;;5.23;;
8952;SDS011;4511;50.890;8.054;2022-11-18T13:31:57;9.53;;;5.37;;
8952;SDS011;4511;50.890;8.054;2022-11-18T13:34:38;11.03;;;5.53;;
8952;SDS011;4511;50.890;8.054;2022-11-18T13:37:11;8.33;;;6.00;;
8952;SDS011;4511;50.890;8.054;2022-11-18T13:39:43;7.97;;;6.10;;
8952;SDS011;4511;50.890;8.054;2022-11-18T13:42:14;8.97;;;6.20;;
8952;SDS011;4511;50.890;8.054;2022-11-18T13:44:43;9.30;;;6.77;;
8952;SDS011;4511;50.890;8.054;2022-11-18T13:47:15;12.00;;;6.53;;
8952;SDS011;4511;50.890;8.054;2022-11-18T13:49:50;12.33;;;6.30;;
8952;SDS011;4511;50.890;8.054;2022-11-18T13:52:22;10.57;;;5.97;;
8952;SDS011;4511;50.890;8.054;2022-11-18T13:54:54;8.73;;;6.00;;
8952;SDS011;4511;50.890;8.054;2022-11-18T13:57:25;6.07;;;5.23;;
8952;SDS011;4511;50.890;8.054;2022-11-18T13:59:53;10.07;;;6.07;;
8952;SDS011;4511;50.890;8.054;2022-11-18T14:02:23;8.57;;;5.20;;
8952;SDS011;4511;50.890;8.054;2022-11-18T14:04:51;8.97;;;5.20;;
8952;SDS011;4511;50.890;8.054;2022-11-18T14:07:25;9.27;;;4.90;;
8952;SDS011;4511;50.890;8.054;2022-11-18T14:09:54;7.90;;;4.83;;
8952;SDS011;4511;50.890;8.054;2022-11-18T14:12:24;9.70;;;4.77;;
8952;SDS011;4511;50.890;8.054;2022-11-18T14:14:53;8.60;;;5.20;;
8952;SDS011;4511;50.890;8.054;2022-11-18T14:17:47;7.70;;;5.13;;
8952;SDS011;4511;50.890;8.054;2022-11-18T14:20:16;9.30;;;5.63;;
8952;SDS011;4511;50.890;8.054;2022-11-18T14:22:43;9.73;;;6.00;;
8952;SDS011;4511;50.890;8.054;2022-11-18T14:25:15;9.03;;;6.80;;
8952;SDS011;4511;50.890;8.054;2022-11-18T14:27:44;10.43;;;6.63;;
8952;SDS011;4511;50.890;8.054;2022-11-18T14:30:24;10.60;;;7.00;;
8952;SDS011;4511;50.890;8.054;2022-11-18T14:35:52;15.30;;;6.70;;
8952;SDS011;4511;50.890;8.054;2022-11-18T14:38:21;19.83;;;6.80;;
8952;SDS011;4511;50.890;8.054;2022-11-18T14:40:54;11.60;;;7.30;;
8952;SDS011;4511;50.890;8.054;2022-11-18T14:43:22;8.40;;;5.17;;
8952;SDS011;4511;50.890;8.054;2022-11-18T14:45:51;9.90;;;5.50;;
8952;SDS011;4511;50.890;8.054;2022-11-18T14:48:19;9.20;;;6.77;;
8952;SDS011;4511;50.890;8.054;2022-11-18T14:50:49;11.87;;;7.23;;
8952;SDS011;4511;50.890;8.054;2022-11-18T14:53:16;14.97;;;8.73;;
8952;SDS011;4511;50.890;8.054;2022-11-18T14:55:43;12.23;;;7.20;;
8952;SDS011;4511;50.890;8.054;2022-11-18T14:58:12;10.47;;;7.63;;
8952;SDS011;4511;50.890;8.054;2022-11-18T15:00:40;9.60;;;7.00;;
8952;SDS011;4511;50.890;8.054;2022-11-18T15:03:09;11.93;;;8.63;;
8952;SDS011;4511;50.890;8.054;2022-11-18T15:05:36;17.97;;;9.50;;
8952;SDS011;4511;50.890;8.054;2022-11-18T15:08:04;10.07;;;8.30;;
8952;SDS011;4511;50.890;8.054;2022-11-18T15:10:31;10.90;;;8.40;;
8952;SDS011;4511;50.890;8.054;2022-11-18T15:12:58;15.13;;;9.00;;
8952;SDS011;4511;50.890;8.054;2022-11-18T15:15:25;9.27;;;8.13;;
8952;SDS011;4511;50.890;8.054;2022-11-18T15:17:52;15.57;;;8.13;;
8952;SDS011;4511;50.890;8.054;2022-11-18T15:20:19;8.77;;;7.17;;
8952;SDS011;4511;50.890;8.054;2022-11-18T15:22:48;9.67;;;7.03;;
8952;SDS011;4511;50.890;8.054;2022-11-18T15:25:16;13.80;;;7.30;;
8952;SDS011;4511;50.890;8.054;2022-11-18T15:27:43;10.30;;;6.40;;
8952;SDS011;4511;50.890;8.054;2022-11-18T15:30:10;9.03;;;6.13;;
8952;SDS011;4511;50.890;8.054;2022-11-18T15:32:39;9.97;;;6.10;;
8952;SDS011;4511;50.890;8.054;2022-11-18T15:35:07;10.43;;;6.33;;
8952;SDS011;4511;50.890;8.054;2022-11-18T15:37:36;10.03;;;7.27;;
8952;SDS011;4511;50.890;8.054;2022-11-18T15:40:02;10.27;;;6.60;;
8952;SDS011;4511;50.890;8.054;2022-11-18T15:42:31;10.40;;;7.33;;
8952;SDS011;4511;50.890;8.054;2022-11-18T15:44:58;10.33;;;7.63;;
8952;SDS011;4511;50.890;8.054;2022-11-18T15:47:24;10.47;;;7.20;;
8952;SDS011;4511;50.890;8.054;2022-11-18T15:49:51;11.20;;;7.87;;
8952;SDS011;4511;50.890;8.054;2022-11-18T15:52:18;15.40;;;8.43;;